createdAt,value
2023-02-22T00:01:51.988Z,20.70
2023-02-22T00:04:21.345Z,22.67
2023-02-22T00:06:50.070Z,25.10
2023-02-22T00:09:20.841Z,23.23
2023-02-22T00:11:49.574Z,28.07
2023-02-22T00:14:20.272Z,19.87
2023-02-22T00:16:47.606Z,26.03
2023-02-22T00:19:14.872Z,29.83
2023-02-22T00:21:47.760Z,19.13
2023-02-22T00:24:25.420Z,24.17
2023-02-22T00:26:55.553Z,23.17
2023-02-22T00:29:23.416Z,28.07
2023-02-22T00:31:54.015Z,26.27
2023-02-22T00:34:23.368Z,26.83
2023-02-22T00:36:50.787Z,18.80
2023-02-22T00:39:18.281Z,20.13
2023-02-22T00:41:45.859Z,26.13
2023-02-22T00:44:13.231Z,26.00
2023-02-22T00:46:40.489Z,24.93
2023-02-22T00:49:07.968Z,20.20
2023-02-22T00:51:35.145Z,35.00
2023-02-22T00:54:02.622Z,28.33
2023-02-22T00:56:29.909Z,17.77
2023-02-22T00:58:57.092Z,22.70
2023-02-22T01:01:24.494Z,20.23
2023-02-22T01:03:52.004Z,27.03
2023-02-22T01:06:19.754Z,24.33
2023-02-22T01:08:47.778Z,21.97
2023-02-22T01:11:16.786Z,18.70
2023-02-22T01:13:47.221Z,25.97
2023-02-22T01:16:15.023Z,19.77
2023-02-22T01:18:42.239Z,20.10
2023-02-22T01:21:09.537Z,21.37
2023-02-22T01:23:36.722Z,19.73
2023-02-22T01:26:05.760Z,24.50
2023-02-22T01:28:33.822Z,19.10
2023-02-22T01:31:02.443Z,18.73
2023-02-22T01:33:30.202Z,25.50
2023-02-22T01:35:57.424Z,23.67
2023-02-22T01:38:24.660Z,21.40
2023-02-22T01:40:52.430Z,26.87
2023-02-22T01:43:21.329Z,21.07
2023-02-22T01:45:50.441Z,20.47
2023-02-22T01:48:29.933Z,18.00
2023-02-22T01:51:02.858Z,25.57
2023-02-22T01:53:36.718Z,21.63
2023-02-22T01:56:04.601Z,19.20
2023-02-22T01:58:33.704Z,28.37
2023-02-22T02:01:01.259Z,20.23
2023-02-22T02:03:33.260Z,20.07
2023-02-22T02:06:01.829Z,24.17
2023-02-22T02:08:28.959Z,19.00
2023-02-22T02:10:58.080Z,23.77
2023-02-22T02:13:26.146Z,18.70
2023-02-22T02:15:55.155Z,23.23
2023-02-22T02:18:23.113Z,18.80
2023-02-22T02:21:08.734Z,16.37
2023-02-22T02:23:55.152Z,19.83
2023-02-22T02:26:22.378Z,30.63
2023-02-22T02:28:58.410Z,25.87
2023-02-22T02:31:36.190Z,19.13
2023-02-22T02:34:15.107Z,23.97
2023-02-22T02:36:48.741Z,21.07
2023-02-22T02:39:21.226Z,34.60
2023-02-22T02:41:50.788Z,25.43
2023-02-22T02:44:50.343Z,22.77
2023-02-22T02:47:22.672Z,31.50
2023-02-22T02:49:58.898Z,30.87
2023-02-22T02:52:26.719Z,29.73
2023-02-22T02:54:54.379Z,30.03
2023-02-22T02:57:21.982Z,33.70
2023-02-22T02:59:49.199Z,28.83
2023-02-22T03:02:21.048Z,34.73
2023-02-22T03:04:51.015Z,31.60
2023-02-22T03:07:18.167Z,37.03
2023-02-22T03:10:04.208Z,36.07
2023-02-22T03:12:31.369Z,47.80
2023-02-22T03:15:00.311Z,38.87
2023-02-22T03:17:31.945Z,44.03
2023-02-22T03:20:02.349Z,48.63
2023-02-22T03:22:36.150Z,41.73
2023-02-22T03:25:07.133Z,41.30
2023-02-22T03:27:37.197Z,41.13
2023-02-22T03:30:08.562Z,50.77
2023-02-22T03:32:40.056Z,43.97
2023-02-22T03:35:13.085Z,50.70
2023-02-22T03:37:43.223Z,53.87
2023-02-22T03:40:15.808Z,52.03
2023-02-22T03:42:51.787Z,47.33
2023-02-22T03:45:20.109Z,43.00
2023-02-22T03:47:52.347Z,56.37
2023-02-22T03:50:26.419Z,43.40
2023-02-22T03:52:54.219Z,46.03
2023-02-22T03:55:21.570Z,52.53
2023-02-22T03:57:50.675Z,66.83
2023-02-22T04:00:20.652Z,82.30
2023-02-22T04:02:47.922Z,91.60
2023-02-22T04:05:15.571Z,91.87
2023-02-22T04:07:43.208Z,119.97
2023-02-22T04:10:11.137Z,124.70
2023-02-22T04:12:38.402Z,104.43
2023-02-22T04:15:06.372Z,109.27
2023-02-22T04:17:33.577Z,106.80
2023-02-22T04:20:00.760Z,110.77
2023-02-22T04:22:27.933Z,112.07
2023-02-22T04:24:55.116Z,108.70
2023-02-22T04:27:22.381Z,103.83
2023-02-22T04:29:49.625Z,103.67
2023-02-22T04:32:17.075Z,102.83
2023-02-22T04:34:44.287Z,119.13
2023-02-22T04:37:12.298Z,126.67
2023-02-22T04:39:39.658Z,119.83
2023-02-22T04:42:06.946Z,112.77
2023-02-22T04:44:34.180Z,114.10
2023-02-22T04:47:01.510Z,136.30
2023-02-22T04:49:28.787Z,129.27
2023-02-22T04:51:55.994Z,120.37
2023-02-22T04:54:23.205Z,109.57
2023-02-22T04:56:50.418Z,111.67
2023-02-22T04:59:17.677Z,117.67
2023-02-22T05:01:44.910Z,99.50
2023-02-22T05:04:12.391Z,99.77
2023-02-22T05:06:39.720Z,97.53
2023-02-22T05:09:06.984Z,84.87
2023-02-22T05:11:34.200Z,101.97
2023-02-22T05:14:01.432Z,99.87
2023-02-22T05:16:28.622Z,88.23
2023-02-22T05:18:55.800Z,93.33
2023-02-22T05:21:23.624Z,88.23
2023-02-22T05:23:50.807Z,79.13
2023-02-22T05:26:19.056Z,86.53
2023-02-22T05:28:46.285Z,74.30
2023-02-22T05:31:13.709Z,78.03
2023-02-22T05:33:40.960Z,70.60
2023-02-22T05:36:08.571Z,76.43
2023-02-22T05:38:43.178Z,71.03
2023-02-22T05:41:11.139Z,62.30
2023-02-22T05:43:38.760Z,63.20
2023-02-22T05:46:06.087Z,59.77
2023-02-22T05:48:33.466Z,60.73
2023-02-22T05:51:00.674Z,56.80
2023-02-22T05:53:27.994Z,57.63
2023-02-22T05:55:55.442Z,60.40
2023-02-22T05:58:22.773Z,66.03
2023-02-22T06:00:49.962Z,54.27
2023-02-22T06:03:17.191Z,61.10
2023-02-22T06:05:44.430Z,62.73
2023-02-22T06:08:12.107Z,57.00
2023-02-22T06:10:39.482Z,44.63
2023-02-22T06:13:07.257Z,53.27
2023-02-22T06:15:34.778Z,54.67
2023-02-22T06:18:02.328Z,51.57
2023-02-22T06:20:30.271Z,49.07
2023-02-22T06:22:58.754Z,50.60
2023-02-22T06:25:27.736Z,63.93
2023-02-22T06:27:54.921Z,72.10
2023-02-22T06:30:23.759Z,79.13
2023-02-22T06:32:51.168Z,100.93
2023-02-22T06:35:18.830Z,129.70
2023-02-22T06:37:46.127Z,121.03
2023-02-22T06:40:14.051Z,115.80
2023-02-22T06:42:44.192Z,106.20
2023-02-22T06:45:11.530Z,81.00
2023-02-22T06:47:40.305Z,64.23
2023-02-22T06:50:07.748Z,64.83
2023-02-22T06:52:35.058Z,59.43
2023-02-22T06:55:02.240Z,61.90
2023-02-22T06:57:29.406Z,55.93
2023-02-22T06:59:57.506Z,47.70
2023-02-22T07:02:24.693Z,61.30
2023-02-22T07:04:51.901Z,70.97
2023-02-22T07:07:19.210Z,61.43
2023-02-22T07:09:47.851Z,68.20
2023-02-22T07:12:15.102Z,64.00
2023-02-22T07:14:42.270Z,60.27
2023-02-22T07:17:09.483Z,52.73
2023-02-22T07:19:36.726Z,55.40
2023-02-22T07:22:03.897Z,50.57
2023-02-22T07:24:31.203Z,38.10
2023-02-22T07:26:58.380Z,41.60
2023-02-22T07:29:25.552Z,42.20
2023-02-22T07:31:52.911Z,36.07
2023-02-22T07:34:20.282Z,40.97
2023-02-22T07:36:47.494Z,46.90
2023-02-22T07:39:14.795Z,34.57
2023-02-22T07:41:42.090Z,41.53
2023-02-22T07:44:09.816Z,48.77
2023-02-22T07:46:37.015Z,43.50
2023-02-22T07:49:04.177Z,49.77
2023-02-22T07:51:31.348Z,40.27
2023-02-22T07:53:58.616Z,44.97
2023-02-22T07:56:25.815Z,50.30
2023-02-22T07:58:53.045Z,44.20
2023-02-22T08:01:20.281Z,49.77
2023-02-22T08:03:47.676Z,51.07
2023-02-22T08:06:15.359Z,47.47
2023-02-22T08:08:42.870Z,47.77
2023-02-22T08:11:10.135Z,47.60
2023-02-22T08:13:37.396Z,37.87
2023-02-22T08:16:04.813Z,35.50
2023-02-22T08:18:32.012Z,30.43
2023-02-22T08:20:59.342Z,35.27
2023-02-22T08:23:27.144Z,31.60
2023-02-22T08:25:54.888Z,28.43
2023-02-22T08:28:23.814Z,33.53
2023-02-22T08:30:51.346Z,31.73
2023-02-22T08:33:19.803Z,30.83
2023-02-22T08:35:49.567Z,43.60
2023-02-22T08:38:18.696Z,32.83
2023-02-22T08:40:46.209Z,32.93
2023-02-22T08:43:13.966Z,31.50
2023-02-22T08:45:41.626Z,28.27
2023-02-22T08:48:08.990Z,29.23
2023-02-22T08:50:36.389Z,26.90
2023-02-22T08:53:04.574Z,31.97
2023-02-22T08:55:33.730Z,27.43
2023-02-22T08:58:03.068Z,33.23
2023-02-22T09:00:33.294Z,24.20
2023-02-22T09:03:01.436Z,31.83
2023-02-22T09:05:31.138Z,35.60
2023-02-22T09:07:58.686Z,26.70
2023-02-22T09:10:27.422Z,32.00
2023-02-22T09:13:00.598Z,28.00
2023-02-22T09:15:28.459Z,20.47
2023-02-22T09:17:55.878Z,25.50
2023-02-22T09:20:23.790Z,22.77
2023-02-22T09:22:51.299Z,23.70
2023-02-22T09:25:20.645Z,21.03
2023-02-22T09:27:51.971Z,25.70
2023-02-22T09:30:38.108Z,27.47
2023-02-22T09:33:13.094Z,19.03
2023-02-22T09:35:46.279Z,26.93
2023-02-22T09:38:22.747Z,27.07
2023-02-22T09:40:51.514Z,20.40
2023-02-22T09:43:21.513Z,21.40
2023-02-22T09:46:24.410Z,21.67
2023-02-22T09:49:05.272Z,18.70
2023-02-22T09:51:39.884Z,20.57
2023-02-22T09:54:10.959Z,23.13
2023-02-22T09:56:39.559Z,19.20
2023-02-22T09:59:08.155Z,26.80
2023-02-22T10:01:39.875Z,26.63
2023-02-22T10:04:12.908Z,28.10
2023-02-22T10:06:41.482Z,22.93
2023-02-22T10:09:10.677Z,26.63
2023-02-22T10:11:52.534Z,22.63
2023-02-22T10:14:38.555Z,17.10
2023-02-22T10:17:14.855Z,18.07
2023-02-22T10:19:44.795Z,25.17
2023-02-22T10:22:15.236Z,30.00
2023-02-22T10:25:02.147Z,20.67
2023-02-22T10:27:32.960Z,23.47
2023-02-22T10:30:15.518Z,22.97
2023-02-22T10:33:09.695Z,20.83
2023-02-22T10:35:38.172Z,16.00
2023-02-22T10:38:16.608Z,20.23
2023-02-22T10:41:04.043Z,21.37
2023-02-22T10:43:31.600Z,19.57
2023-02-22T10:46:01.448Z,23.73
2023-02-22T10:48:30.279Z,17.17
2023-02-22T10:51:02.083Z,25.30
2023-02-22T10:53:29.969Z,19.57
2023-02-22T10:56:09.330Z,23.27
2023-02-22T10:58:55.528Z,28.13
2023-02-22T11:01:28.126Z,15.70
2023-02-22T11:03:59.588Z,21.77
2023-02-22T11:06:27.573Z,20.57
2023-02-22T11:09:12.637Z,18.93
2023-02-22T11:11:41.340Z,23.40
2023-02-22T11:14:12.638Z,23.73
2023-02-22T11:16:42.404Z,20.17
2023-02-22T11:19:18.209Z,21.53
2023-02-22T11:21:45.642Z,26.00
2023-02-22T11:24:14.368Z,21.53
2023-02-22T11:26:43.931Z,23.47
2023-02-22T11:29:12.538Z,21.23
2023-02-22T11:31:43.929Z,25.63
2023-02-22T11:34:26.210Z,20.60
2023-02-22T11:36:53.439Z,22.43
2023-02-22T11:39:25.745Z,21.93
2023-02-22T11:41:53.280Z,25.23
2023-02-22T11:44:25.628Z,21.70
2023-02-22T11:46:55.826Z,25.77
2023-02-22T11:49:33.320Z,27.40
2023-02-22T11:52:19.756Z,24.77
2023-02-22T11:55:02.348Z,19.20
2023-02-22T11:57:30.097Z,23.23
2023-02-22T12:00:26.734Z,25.80
2023-02-22T12:03:12.961Z,20.30
2023-02-22T12:05:40.562Z,20.70
2023-02-22T12:08:19.841Z,16.50
2023-02-22T12:10:58.560Z,20.87
2023-02-22T12:13:32.734Z,20.67
2023-02-22T12:16:06.700Z,21.23
2023-02-22T12:18:53.537Z,22.03
2023-02-22T12:21:22.742Z,26.73
2023-02-22T12:23:54.201Z,18.20
2023-02-22T12:26:25.003Z,19.83
2023-02-22T12:28:52.324Z,19.40
2023-02-22T12:31:23.160Z,17.93
2023-02-22T12:34:02.349Z,19.10
2023-02-22T12:36:47.234Z,16.03
2023-02-22T12:39:40.967Z,22.63
2023-02-22T12:42:16.486Z,16.17
2023-02-22T12:44:45.967Z,18.83
2023-02-22T12:47:19.151Z,16.97
2023-02-22T12:49:46.334Z,13.47
2023-02-22T12:52:32.903Z,19.07
2023-02-22T12:55:11.049Z,18.03
2023-02-22T12:57:44.567Z,21.37
2023-02-22T13:00:20.192Z,20.53
2023-02-22T13:03:10.668Z,19.40
2023-02-22T13:05:40.024Z,20.40
2023-02-22T13:08:16.336Z,18.57
2023-02-22T13:10:46.309Z,17.83
2023-02-22T13:13:16.444Z,21.40
2023-02-22T13:15:43.661Z,22.20
2023-02-22T13:18:15.413Z,22.83
2023-02-22T13:20:42.621Z,23.93
2023-02-22T13:23:19.217Z,19.10
2023-02-22T13:25:55.273Z,19.03
2023-02-22T13:28:32.295Z,20.03
2023-02-22T13:31:18.787Z,29.73
2023-02-22T13:34:04.515Z,17.47
2023-02-22T13:36:40.108Z,17.47
2023-02-22T13:39:20.055Z,23.13
2023-02-22T13:41:53.615Z,23.00
2023-02-22T13:44:37.198Z,17.00
2023-02-22T13:47:16.791Z,21.47
2023-02-22T13:49:49.886Z,18.20
2023-02-22T13:52:20.855Z,21.40
2023-02-22T13:55:11.335Z,16.37
2023-02-22T13:57:39.427Z,19.73
2023-02-22T14:00:16.009Z,13.03
2023-02-22T14:03:09.126Z,20.73
2023-02-22T14:05:42.873Z,16.17
2023-02-22T14:08:19.615Z,16.77
2023-02-22T14:10:46.901Z,15.30
2023-02-22T14:13:14.903Z,15.70
2023-02-22T14:16:00.725Z,15.83
2023-02-22T14:18:31.010Z,13.97
2023-02-22T14:21:08.937Z,16.43
2023-02-22T14:23:38.251Z,12.80
2023-02-22T14:26:17.447Z,15.27
2023-02-22T14:28:53.074Z,16.50
2023-02-22T14:31:34.891Z,17.10
2023-02-22T14:34:06.564Z,13.97
2023-02-22T14:36:39.936Z,12.53
2023-02-22T14:39:13.422Z,17.13
2023-02-22T14:41:43.972Z,14.30
2023-02-22T14:44:12.983Z,11.03
2023-02-22T14:46:42.350Z,13.47
2023-02-22T14:49:16.787Z,12.60
2023-02-22T14:51:45.574Z,13.80
2023-02-22T14:54:15.828Z,13.50
2023-02-22T14:56:51.876Z,12.90
2023-02-22T14:59:25.167Z,12.63
2023-02-22T15:02:11.537Z,13.17
2023-02-22T15:04:41.335Z,15.60
2023-02-22T15:07:10.463Z,14.97
2023-02-22T15:09:41.073Z,12.43
2023-02-22T15:12:10.492Z,15.60
2023-02-22T15:14:41.753Z,13.23
2023-02-22T15:17:13.287Z,12.70
2023-02-22T15:19:42.117Z,11.07
2023-02-22T15:22:20.588Z,10.67
2023-02-22T15:25:01.389Z,11.93
2023-02-22T15:27:29.013Z,14.33
2023-02-22T15:30:04.808Z,11.77
2023-02-22T15:32:49.974Z,14.40
2023-02-22T15:35:24.647Z,12.73
2023-02-22T15:38:02.508Z,12.90
2023-02-22T15:40:36.067Z,11.27
2023-02-22T15:43:08.985Z,13.93
2023-02-22T15:45:42.923Z,15.27
2023-02-22T15:48:15.927Z,13.97
2023-02-22T15:50:59.039Z,10.63
2023-02-22T15:53:32.903Z,15.57
2023-02-22T15:56:02.453Z,13.10
2023-02-22T15:58:30.114Z,16.57
2023-02-22T16:01:05.303Z,12.90
2023-02-22T16:03:44.995Z,12.07
2023-02-22T16:06:14.019Z,15.83
2023-02-22T16:08:54.798Z,14.23
2023-02-22T16:11:30.750Z,15.90
2023-02-22T16:14:00.964Z,13.07
2023-02-22T16:16:29.844Z,11.20
2023-02-22T16:19:15.742Z,10.90
2023-02-22T16:21:53.616Z,11.50
2023-02-22T16:24:31.573Z,12.10
2023-02-22T16:27:07.948Z,12.67
2023-02-22T16:29:35.211Z,15.13
2023-02-22T16:32:03.875Z,15.47
2023-02-22T16:34:31.144Z,17.30
2023-02-22T16:36:58.618Z,17.37
2023-02-22T16:39:29.181Z,22.07
2023-02-22T16:41:57.679Z,17.40
2023-02-22T16:44:25.743Z,16.40
2023-02-22T16:46:56.860Z,20.63
2023-02-22T16:49:24.357Z,19.13
2023-02-22T16:51:56.275Z,20.90
2023-02-22T16:54:28.999Z,21.87
2023-02-22T16:56:57.220Z,17.63
2023-02-22T16:59:24.607Z,19.83
2023-02-22T17:01:51.873Z,21.17
2023-02-22T17:04:20.571Z,20.17
2023-02-22T17:06:48.394Z,24.00
2023-02-22T17:09:15.773Z,19.87
2023-02-22T17:11:43.636Z,24.10
2023-02-22T17:14:11.435Z,17.70
2023-02-22T17:16:38.813Z,23.10
2023-02-22T17:19:10.450Z,23.10
2023-02-22T17:21:37.630Z,19.57
2023-02-22T17:24:04.935Z,20.33
2023-02-22T17:26:32.145Z,22.03
2023-02-22T17:28:59.521Z,24.63
2023-02-22T17:31:28.220Z,26.93
2023-02-22T17:33:57.135Z,21.37
2023-02-22T17:36:24.335Z,17.47
2023-02-22T17:38:51.544Z,19.10
2023-02-22T17:41:18.724Z,26.23
2023-02-22T17:43:45.906Z,22.33
2023-02-22T17:46:13.204Z,22.60
2023-02-22T17:48:40.438Z,25.93
2023-02-22T17:51:08.823Z,23.33
2023-02-22T17:53:36.217Z,24.67
2023-02-22T17:56:07.785Z,27.37
2023-02-22T17:58:35.120Z,26.97
2023-02-22T18:01:02.466Z,28.00
2023-02-22T18:03:30.866Z,28.57
2023-02-22T18:05:59.410Z,25.23
2023-02-22T18:08:27.603Z,37.57
2023-02-22T18:10:58.193Z,28.97
2023-02-22T18:13:26.865Z,31.07
2023-02-22T18:15:59.921Z,32.40
2023-02-22T18:18:27.608Z,26.40
2023-02-22T18:20:59.507Z,30.83
2023-02-22T18:23:28.142Z,25.30
2023-02-22T18:26:09.607Z,28.07
2023-02-22T18:28:37.956Z,25.57
2023-02-22T18:31:15.345Z,28.60
2023-02-22T18:33:46.663Z,26.33
2023-02-22T18:36:14.359Z,26.67
2023-02-22T18:38:45.201Z,26.70
2023-02-22T18:41:13.634Z,26.43
2023-02-22T18:43:41.505Z,28.83
2023-02-22T18:46:16.308Z,26.93
2023-02-22T18:48:43.936Z,24.77
2023-02-22T18:51:12.705Z,27.90
2023-02-22T18:53:41.173Z,22.47
2023-02-22T18:56:10.367Z,19.20
2023-02-22T18:58:38.821Z,17.87
2023-02-22T19:01:07.394Z,26.87
2023-02-22T19:03:38.288Z,23.03
2023-02-22T19:06:09.990Z,21.00
2023-02-22T19:08:39.643Z,25.47
2023-02-22T19:11:08.689Z,21.40
2023-02-22T19:13:36.076Z,25.13
2023-02-22T19:16:04.380Z,27.37
2023-02-22T19:18:31.807Z,22.57
2023-02-22T19:20:59.821Z,25.00
2023-02-22T19:23:28.352Z,27.63
2023-02-22T19:25:55.586Z,26.90
2023-02-22T19:28:28.052Z,27.60
2023-02-22T19:30:55.318Z,27.33
2023-02-22T19:33:26.065Z,24.43
2023-02-22T19:35:53.779Z,28.70
2023-02-22T19:38:21.118Z,22.17
2023-02-22T19:40:48.576Z,26.03
2023-02-22T19:43:15.816Z,23.17
2023-02-22T19:45:43.093Z,22.77
2023-02-22T19:48:10.391Z,22.93
2023-02-22T19:50:48.402Z,26.20
2023-02-22T19:53:18.871Z,23.97
2023-02-22T19:55:46.065Z,24.33
2023-02-22T19:58:15.375Z,27.73
2023-02-22T20:00:42.575Z,24.57
2023-02-22T20:03:13.274Z,27.83
2023-02-22T20:05:41.423Z,23.30
2023-02-22T20:08:09.328Z,28.77
2023-02-22T20:10:37.184Z,32.40
2023-02-22T20:13:04.367Z,30.00
2023-02-22T20:15:31.698Z,28.87
2023-02-22T20:18:00.300Z,27.20
2023-02-22T20:20:30.326Z,29.17
2023-02-22T20:22:59.367Z,28.87
2023-02-22T20:25:26.588Z,29.27
2023-02-22T20:27:53.792Z,29.20
2023-02-22T20:30:23.211Z,35.67
2023-02-22T20:32:50.533Z,29.27
2023-02-22T20:35:17.898Z,32.53
2023-02-22T20:37:45.354Z,27.40
2023-02-22T20:40:12.733Z,27.07
2023-02-22T20:42:40.702Z,33.03
2023-02-22T20:45:09.739Z,35.93
2023-02-22T20:47:37.884Z,27.90
2023-02-22T20:50:05.683Z,30.47
2023-02-22T20:52:33.275Z,34.97
2023-02-22T20:55:01.881Z,31.03
2023-02-22T20:57:29.055Z,30.03
2023-02-22T20:59:56.271Z,31.43
2023-02-22T21:02:23.451Z,31.70
2023-02-22T21:04:50.709Z,32.87
2023-02-22T21:07:17.945Z,35.27
2023-02-22T21:09:45.140Z,31.47
2023-02-22T21:12:13.740Z,30.03
2023-02-22T21:14:43.597Z,35.10
2023-02-22T21:17:10.829Z,35.47
2023-02-22T21:19:38.306Z,37.10
2023-02-22T21:22:08.677Z,30.47
2023-02-22T21:24:37.311Z,32.57
2023-02-22T21:27:06.886Z,32.73
2023-02-22T21:29:35.507Z,31.53
2023-02-22T21:32:03.296Z,33.03
2023-02-22T21:34:30.907Z,36.47
2023-02-22T21:36:58.168Z,35.67
2023-02-22T21:39:28.541Z,35.50
2023-02-22T21:42:00.226Z,37.80
2023-02-22T21:44:27.756Z,29.73
2023-02-22T21:46:55.020Z,32.23
2023-02-22T21:49:25.070Z,35.20
2023-02-22T21:51:52.692Z,30.67
2023-02-22T21:54:20.531Z,31.57
2023-02-22T21:56:47.994Z,34.57
2023-02-22T21:59:18.884Z,33.67
2023-02-22T22:01:48.131Z,30.70
2023-02-22T22:04:18.972Z,32.60
2023-02-22T22:06:50.209Z,29.20
2023-02-22T22:09:21.902Z,27.90
2023-02-22T22:11:50.708Z,26.67
2023-02-22T22:14:19.019Z,29.07
2023-02-22T22:16:46.953Z,30.27
2023-02-22T22:19:14.359Z,28.47
2023-02-22T22:21:41.939Z,30.70
2023-02-22T22:24:10.869Z,31.67
2023-02-22T22:26:38.567Z,25.93
2023-02-22T22:29:06.168Z,30.37
2023-02-22T22:31:33.695Z,28.27
2023-02-22T22:34:01.457Z,30.30
2023-02-22T22:36:28.744Z,28.37
2023-02-22T22:38:59.050Z,28.53
2023-02-22T22:41:28.210Z,27.67
2023-02-22T22:43:55.837Z,27.80
2023-02-22T22:46:23.242Z,26.97
2023-02-22T22:48:50.587Z,29.20
2023-02-22T22:51:21.811Z,28.13
2023-02-22T22:53:49.734Z,27.77
2023-02-22T22:56:18.419Z,27.40
2023-02-22T22:58:53.669Z,28.77
2023-02-22T23:01:26.979Z,26.67
2023-02-22T23:03:55.529Z,29.93
2023-02-22T23:06:30.997Z,25.10
2023-02-22T23:09:00.108Z,29.80
2023-02-22T23:11:28.800Z,33.43
2023-02-22T23:13:56.528Z,24.43
2023-02-22T23:16:25.055Z,27.40
2023-02-22T23:18:52.481Z,27.87
2023-02-22T23:21:24.334Z,24.53
2023-02-22T23:23:55.314Z,29.53
2023-02-22T23:26:22.544Z,23.23
2023-02-22T23:28:49.974Z,28.90
2023-02-22T23:31:18.516Z,24.57
2023-02-22T23:33:50.353Z,23.87
2023-02-22T23:36:18.443Z,29.57
2023-02-22T23:38:45.983Z,23.83
2023-02-22T23:41:16.634Z,27.50
2023-02-22T23:43:45.022Z,23.20
2023-02-22T23:46:13.457Z,27.33
2023-02-22T23:48:46.584Z,24.07
2023-02-22T23:51:14.802Z,25.87
2023-02-22T23:53:49.582Z,27.40
2023-02-22T23:56:18.629Z,26.20
2023-02-22T23:58:51.238Z,22.97
